Houston Intercontinental, TX

4:48 PM CDT on April 29, 2017 (GMT -0500)
George Bush Intercontinental-Houston Airport | | Change Station

Elev 95 ft 29.98 °N, 95.34 °W | Updated 55 minutes ago

Overcast
Overcast
82 °F
Feels Like 88 °F
N
17
Wind Variable Wind from SSE
Gusts 31 mph

Today
High -- | Low -- °F
--% Chance of Precip.
Yesterday
High -- | Low -- °F
Precip. -- in
Pressure 29.62 in
Visibility 4.0 miles
Clouds Overcast 1800 ft
Heat Index 88 °F
Dew Point 74 °F
Humidity 76%
Rainfall 0.00 in
Snow Depth Not available.
6:40 AM 7:57 PM
Waxing Crescent, 16% visible
METAR KIAH 292053Z 16015G27KT 4SM HZ OVC018 28/23 A2962 RMK AO2 PK WND 16030/2039 SLP028 T02780233 56010 $
Pressure 29.62 in
Visibility 4.0 miles
Clouds Overcast 1800 ft
Heat Index 88 °F
Dew Point 74 °F
Humidity 76%
Rainfall 0.00 in
Snow Depth Not available.
6:40 AM 7:57 PM
Waxing Crescent, 16% visible
METAR KIAH 292053Z 16015G27KT 4SM HZ OVC018 28/23 A2962 RMK AO2 PK WND 16030/2039 SLP028 T02780233 56010 $

Get Severe Weather Alerts

Thanks for signing up!

Be on the lookout for a verification email in your inbox.

You'll start receiving the daily forecast at 8 AM.

×

10-Day Weather Forecast

Almanac

Astronomy

Apr. 29, 2017 Rise Set
Actual Time
Civil Twilight
Nautical Twilight
Astronomical Twilight
Moon
Length of Visible Light
Length of Day
Tomorrow will be .
, % of the Moon is Illuminated

Today's Extremes

State Highs State Lows

Community

WunderPhotos

WunderBlog® & News

Nearby

Air Quality

  Air Quality AQ Index Pollutant
Not available.

Snow Depth

Station Depth Elevation

Earthquake Activity

City Distance Mag. Time & Date
Minimum magnitude displayed is 2.5.

Coastal Water Temperatures

Place Temperature

Stations

Nearby Weather Stations

Station Location Temp. Windchill Dew Point Humidity Wind Precip. Elev Updated Type
                   

Watches & Warnings

There are currently no watches in effect.